Flugplatz Donauwörth-Genderkinken (EDMQ)

Hier findest Du alle Informationen zum Flugplatz Donauwörth-Genderkinken (EDMQ).

Informationen für Piloten zum Flugplatz Donauwörth-Genderkinken

Hier findest Du alle relevanten Informationen, die Du als Pilot benötigst, um Donauwörth-Genderkinken anzufliegen.

Flugplatz: Donauwörth-Genderkinken ICAO-Code: EDMQ
Frequenz Turm: 134,125 Mhz GAFOR Gebiet: 73
Frequenz Ground: 134,125 Mhz Mogas: ja
Platzrunde: N 2000 ft Landegebühr: -
Platzhöhe: - Sunrise: 05:04 Uhr UTC
Pisten: 09/27 - 530 m x 15 m, ASPH Sunset: 17:12 Uhr UTC

Flugwetter am Flugplatz Donauwörth-Genderkinken

Die METAR Information stammen aus EDMA (31.51 km entfernt).

METAR Code:
2022/09/23 13:20
EDMA 231320Z 27007KT CAVOK 17/08 Q1017

Temperatur: 12,7 °C Niederschlag: - Wind: 3,0 kt (max.: 3,7 kt in Böen)
Temperatur (min.): 12,2 °C Luftdruck: 1014 hPa Windrichtung: 228 °
Temperatur (max.): 12,9 °C Luftfeuchtigkeit: 94 % Bewölkung: 8/8

Flugschulen am Flugplatz Donauwörth-Genderkinken

Am Flugplatz Donauwörth-Genderkinken gibt es leider keine Flugschule.

Benachbarte Flugplätze und Flugschulen

Es gibt 19 weitere Flugplätze in einem Umkreis von 50 km um den Flugplatz Donauwörth-Genderkinken.

Jetzt anmelden

Passwort vergessen

Umfrage Archiv

Sendet Ihr ADS-B und/oder FLARM?

Ja
83.7 %
Nein
16.3 %
Stimmen: 221 | Diskussion
Anzeige: Roland Aircraft
Statistik Alle Mitglieder

Aktuell sind 48 Besucher online.

Anzeige: ULPower Aero Engines Anzeige: Pocket FMS